Time;durP1;ratioP1;P1;durP2;ratioP2;P2;SDS_P1;SDS_P2;PMS_P1;PMS_P2;Temp;Humidity;BMP_temperature;BMP_pressure;BME280_temperature;BME280_humidity;BME280_pressure;Samples;Min_cycle;Max_cycle;Signal;HPM_P1;HPM_P2
2023/10/26 00:00:14;;;;;;;9.57;6.35;;;;;;;;;;5036214;22;20320;-76
2023/10/26 00:02:39;;;;;;;8.95;5.63;;;;;;;;;;5036403;28;20124;-76
2023/10/26 00:05:05;;;;;;;8.75;6.47;;;;;;;;;;5042368;28;20029;-77
2023/10/26 00:07:31;;;;;;;8.55;6.22;;;;;;;;;;5042496;28;20041;-78
2023/10/26 00:09:56;;;;;;;7.32;6.05;;;;;;;;;;5044497;28;20129;-78
2023/10/26 00:12:21;;;;;;;7.38;5.75;;;;;;;;;;5031389;28;20033;-78
2023/10/26 00:14:47;;;;;;;7.03;5.40;;;;;;;;;;5024818;28;20050;-78
2023/10/26 00:17:12;;;;;;;10.32;6.00;;;;;;;;;;5023913;28;20075;-78
2023/10/26 00:19:37;;;;;;;8.02;5.95;;;;;;;;;;5025347;28;20056;-78
2023/10/26 00:22:02;;;;;;;8.32;6.22;;;;;;;;;;5025524;28;20055;-78
2023/10/26 00:24:28;;;;;;;8.15;6.45;;;;;;;;;;5032130;28;20030;-77
2023/10/26 00:26:53;;;;;;;7.93;6.38;;;;;;;;;;5035430;28;20092;-79
2023/10/26 00:29:18;;;;;;;11.00;7.30;;;;;;;;;;5032625;28;20033;-79
2023/10/26 00:31:43;;;;;;;8.23;7.03;;;;;;;;;;5025041;28;20095;-79
2023/10/26 00:34:09;;;;;;;8.57;6.95;;;;;;;;;;5029624;28;20100;-79
2023/10/26 00:36:34;;;;;;;9.20;5.82;;;;;;;;;;5015427;28;20030;-78
2023/10/26 00:38:59;;;;;;;9.35;6.88;;;;;;;;;;5029410;28;20446;-79
2023/10/26 00:41:24;;;;;;;8.93;5.70;;;;;;;;;;5034169;28;20025;-78
2023/10/26 00:43:49;;;;;;;10.35;6.85;;;;;;;;;;4999190;28;20083;-79
2023/10/26 00:46:15;;;;;;;7.13;5.75;;;;;;;;;;5017301;28;20061;-79
2023/10/26 00:48:40;;;;;;;11.60;8.43;;;;;;;;;;5029025;28;20037;-78
2023/10/26 00:51:05;;;;;;;10.75;6.78;;;;;;;;;;5032790;28;20526;-79
2023/10/26 00:53:32;;;;;;;11.30;6.78;;;;;;;;;;5024922;28;20102;-79
2023/10/26 00:55:58;;;;;;;8.02;5.30;;;;;;;;;;5033612;28;20398;-78
2023/10/26 00:58:25;;;;;;;10.88;7.80;;;;;;;;;;5013862;28;20042;-78
2023/10/26 01:00:51;;;;;;;8.75;6.40;;;;;;;;;;5009718;28;20032;-78
2023/10/26 01:03:17;;;;;;;8.18;6.07;;;;;;;;;;5030581;28;20036;-78
2023/10/26 01:05:44;;;;;;;8.48;6.70;;;;;;;;;;5017203;28;20442;-79
2023/10/26 01:08:09;;;;;;;9.27;6.97;;;;;;;;;;5035157;28;20040;-78
2023/10/26 01:10:35;;;;;;;7.95;6.43;;;;;;;;;;5032127;28;20046;-77
2023/10/26 01:13:01;;;;;;;7.90;6.13;;;;;;;;;;5033310;28;20048;-78
2023/10/26 01:15:26;;;;;;;8.05;6.30;;;;;;;;;;5027155;28;20034;-78
2023/10/26 01:17:51;;;;;;;10.27;7.85;;;;;;;;;;5017362;28;20025;-78
2023/10/26 01:20:17;;;;;;;8.68;6.05;;;;;;;;;;5017014;28;20030;-78
2023/10/26 01:22:43;;;;;;;7.45;6.07;;;;;;;;;;5017545;28;20029;-78
2023/10/26 01:25:09;;;;;;;11.82;7.93;;;;;;;;;;5032745;28;20108;-77
2023/10/26 01:27:34;;;;;;;9.18;7.05;;;;;;;;;;5030999;28;20121;-79
2023/10/26 01:29:59;;;;;;;9.73;7.97;;;;;;;;;;5018543;28;20033;-79
2023/10/26 01:32:27;;;;;;;8.45;7.05;;;;;;;;;;5014548;28;20038;-79
2023/10/26 01:34:53;;;;;;;8.48;6.20;;;;;;;;;;5012509;28;20052;-77
2023/10/26 01:37:18;;;;;;;7.70;6.88;;;;;;;;;;5017974;28;20047;-79
2023/10/26 01:39:43;;;;;;;7.68;5.47;;;;;;;;;;5012469;28;20037;-78
2023/10/26 01:42:10;;;;;;;7.03;6.18;;;;;;;;;;5017166;28;20042;-79
2023/10/26 01:44:36;;;;;;;9.27;7.63;;;;;;;;;;5016201;28;20092;-79
2023/10/26 01:47:01;;;;;;;9.40;7.70;;;;;;;;;;5009375;28;20493;-79
2023/10/26 01:49:26;;;;;;;10.73;8.27;;;;;;;;;;5017103;28;20482;-79
2023/10/26 01:51:52;;;;;;;7.75;6.43;;;;;;;;;;5015601;28;20032;-79
2023/10/26 01:54:17;;;;;;;9.50;7.88;;;;;;;;;;5012823;28;20405;-78
2023/10/26 01:56:43;;;;;;;9.77;7.15;;;;;;;;;;5015984;28;20037;-78
2023/10/26 01:59:08;;;;;;;8.77;6.70;;;;;;;;;;5016194;28;20017;-78
2023/10/26 02:01:34;;;;;;;7.40;5.88;;;;;;;;;;5014491;28;20034;-77
2023/10/26 02:03:59;;;;;;;8.18;6.43;;;;;;;;;;5017308;28;20025;-77
2023/10/26 02:06:24;;;;;;;9.98;7.55;;;;;;;;;;5013658;28;20061;-78
2023/10/26 02:08:49;;;;;;;7.22;6.13;;;;;;;;;;5028982;28;20105;-78
2023/10/26 02:11:15;;;;;;;7.15;5.55;;;;;;;;;;5014882;28;20036;-78
2023/10/26 02:13:40;;;;;;;8.60;6.32;;;;;;;;;;5014884;28;20494;-78
2023/10/26 02:16:06;;;;;;;8.88;6.47;;;;;;;;;;5016969;28;20546;-77
2023/10/26 02:18:31;;;;;;;7.95;4.75;;;;;;;;;;5014396;28;20439;-77
2023/10/26 02:20:58;;;;;;;5.50;3.97;;;;;;;;;;5016655;28;20017;-78
2023/10/26 02:23:24;;;;;;;5.53;4.10;;;;;;;;;;5010374;28;20040;-78
2023/10/26 02:25:49;;;;;;;5.95;4.22;;;;;;;;;;5030828;28;20029;-78
2023/10/26 02:28:19;;;;;;;8.20;4.47;;;;;;;;;;5014965;28;20033;-78
2023/10/26 02:30:45;;;;;;;5.60;4.53;;;;;;;;;;5001439;28;20587;-78
2023/10/26 02:33:10;;;;;;;5.70;4.10;;;;;;;;;;5010482;28;20037;-77
2023/10/26 02:35:37;;;;;;;5.97;3.67;;;;;;;;;;5008709;28;20100;-79
2023/10/26 02:38:02;;;;;;;5.28;3.47;;;;;;;;;;5029644;28;20033;-78
2023/10/26 02:40:27;;;;;;;4.53;2.88;;;;;;;;;;5004098;28;20056;-76
2023/10/26 02:42:52;;;;;;;4.32;2.78;;;;;;;;;;5025571;28;20548;-78
2023/10/26 02:45:18;;;;;;;4.35;2.45;;;;;;;;;;5033357;28;20388;-78
2023/10/26 02:47:44;;;;;;;5.32;2.70;;;;;;;;;;5027258;28;20482;-76
2023/10/26 02:50:10;;;;;;;3.55;1.80;;;;;;;;;;5015454;28;20051;-76
2023/10/26 02:52:36;;;;;;;4.47;2.15;;;;;;;;;;5024998;28;20487;-78
2023/10/26 02:55:03;;;;;;;5.97;2.25;;;;;;;;;;5024924;28;20482;-77
2023/10/26 02:57:28;;;;;;;3.58;1.90;;;;;;;;;;5007553;28;20180;-78
2023/10/26 02:59:54;;;;;;;3.03;1.70;;;;;;;;;;5014798;28;20092;-76
2023/10/26 03:02:19;;;;;;;3.53;1.70;;;;;;;;;;5012143;28;20116;-78
2023/10/26 03:04:44;;;;;;;5.85;2.63;;;;;;;;;;5028060;28;20045;-77
2023/10/26 03:07:10;;;;;;;5.00;1.80;;;;;;;;;;5014167;28;20039;-77
2023/10/26 03:09:35;;;;;;;3.03;1.63;;;;;;;;;;5022953;28;20045;-77
2023/10/26 03:12:00;;;;;;;4.28;2.50;;;;;;;;;;5010391;28;20033;-77
2023/10/26 03:14:25;;;;;;;2.58;1.52;;;;;;;;;;5029907;28;20033;-78
2023/10/26 03:16:51;;;;;;;4.13;2.60;;;;;;;;;;5029728;28;20440;-78
2023/10/26 03:19:16;;;;;;;3.90;2.25;;;;;;;;;;5015405;28;20029;-78
2023/10/26 03:21:42;;;;;;;2.75;1.52;;;;;;;;;;5019895;28;20044;-78
2023/10/26 03:24:08;;;;;;;2.33;1.10;;;;;;;;;;5026136;28;20056;-78
2023/10/26 03:26:33;;;;;;;4.35;1.73;;;;;;;;;;5032491;28;20053;-77
2023/10/26 03:28:58;;;;;;;2.63;1.35;;;;;;;;;;5015846;28;20033;-78
2023/10/26 03:31:23;;;;;;;1.50;0.70;;;;;;;;;;5014242;28;20112;-78
2023/10/26 03:33:49;;;;;;;1.77;0.93;;;;;;;;;;5015357;28;20422;-77
2023/10/26 03:36:15;;;;;;;2.13;0.93;;;;;;;;;;5025053;28;20397;-78
2023/10/26 03:38:40;;;;;;;1.77;0.80;;;;;;;;;;5025510;28;20041;-78
2023/10/26 03:41:06;;;;;;;3.22;0.90;;;;;;;;;;5031894;28;20044;-78
2023/10/26 03:43:31;;;;;;;2.90;0.98;;;;;;;;;;4997206;28;20025;-77
2023/10/26 03:45:56;;;;;;;2.30;0.75;;;;;;;;;;5015475;28;20402;-78
2023/10/26 03:48:21;;;;;;;2.63;1.20;;;;;;;;;;5027877;28;20528;-78
2023/10/26 03:50:46;;;;;;;1.88;0.85;;;;;;;;;;5024578;28;20490;-77
2023/10/26 03:53:12;;;;;;;2.13;0.85;;;;;;;;;;5031665;28;20468;-78
2023/10/26 03:55:37;;;;;;;2.42;0.70;;;;;;;;;;5008995;28;20538;-78
2023/10/26 03:58:02;;;;;;;2.20;0.80;;;;;;;;;;5032584;28;20030;-78
2023/10/26 04:00:28;;;;;;;1.60;0.82;;;;;;;;;;5016191;28;20114;-78
2023/10/26 04:02:53;;;;;;;2.30;0.80;;;;;;;;;;5017098;28;20025;-78
2023/10/26 04:05:18;;;;;;;1.55;0.90;;;;;;;;;;5027226;28;20367;-78
2023/10/26 04:07:43;;;;;;;2.50;1.23;;;;;;;;;;5030973;28;20420;-78
2023/10/26 04:10:09;;;;;;;3.38;1.05;;;;;;;;;;5018934;28;20057;-77
2023/10/26 04:12:34;;;;;;;2.15;0.85;;;;;;;;;;5029954;28;20506;-79
2023/10/26 04:15:00;;;;;;;3.53;1.20;;;;;;;;;;5031752;28;20033;-78
2023/10/26 04:17:25;;;;;;;3.13;0.73;;;;;;;;;;5028018;28;20073;-76
2023/10/26 04:19:50;;;;;;;1.75;0.70;;;;;;;;;;5031261;28;20442;-79
2023/10/26 04:22:15;;;;;;;3.83;0.60;;;;;;;;;;5030150;28;20474;-79
2023/10/26 04:24:40;;;;;;;1.45;0.50;;;;;;;;;;5030117;28;20033;-77
2023/10/26 04:27:06;;;;;;;1.10;0.50;;;;;;;;;;5030962;28;20037;-78
2023/10/26 04:29:31;;;;;;;3.17;0.70;;;;;;;;;;5030871;28;20462;-78
2023/10/26 04:31:56;;;;;;;1.45;0.50;;;;;;;;;;5017433;28;20041;-77
2023/10/26 04:34:22;;;;;;;2.20;0.95;;;;;;;;;;5028763;28;20042;-77
2023/10/26 04:36:48;;;;;;;3.83;0.68;;;;;;;;;;5033939;28;20030;-78
2023/10/26 04:39:13;;;;;;;0.68;0.40;;;;;;;;;;5034670;28;20525;-78
2023/10/26 04:41:38;;;;;;;1.08;0.38;;;;;;;;;;5030213;28;20072;-78
2023/10/26 04:44:06;;;;;;;1.13;0.60;;;;;;;;;;5030346;28;20046;-78
2023/10/26 04:46:32;;;;;;;0.73;0.40;;;;;;;;;;5024806;28;20033;-77
2023/10/26 04:48:57;;;;;;;2.58;0.50;;;;;;;;;;5018110;28;20410;-79
2023/10/26 04:51:22;;;;;;;1.15;0.40;;;;;;;;;;5018177;28;20386;-76
2023/10/26 04:53:48;;;;;;;1.35;0.50;;;;;;;;;;5015371;28;20038;-77
2023/10/26 04:56:13;;;;;;;0.90;0.50;;;;;;;;;;5031171;28;20045;-78
2023/10/26 04:58:38;;;;;;;1.10;0.43;;;;;;;;;;5011598;28;20026;-78
2023/10/26 05:01:04;;;;;;;1.38;0.70;;;;;;;;;;5028549;28;20099;-77
2023/10/26 05:03:29;;;;;;;1.50;0.60;;;;;;;;;;5031610;28;20084;-77
2023/10/26 05:05:55;;;;;;;2.28;0.90;;;;;;;;;;5034030;28;20049;-78
2023/10/26 05:08:20;;;;;;;1.45;0.80;;;;;;;;;;5033630;28;20040;-78
2023/10/26 05:10:46;;;;;;;1.65;0.68;;;;;;;;;;5006471;28;20052;-78
2023/10/26 05:13:11;;;;;;;3.33;0.90;;;;;;;;;;5008118;28;20557;-78
2023/10/26 05:15:37;;;;;;;1.42;0.75;;;;;;;;;;5024606;28;20032;-78
2023/10/26 05:18:03;;;;;;;2.70;0.85;;;;;;;;;;5018291;28;20482;-77
2023/10/26 05:20:30;;;;;;;1.90;0.73;;;;;;;;;;5014502;28;20021;-78
2023/10/26 05:22:55;;;;;;;1.77;0.60;;;;;;;;;;5017797;28;20163;-78
2023/10/26 05:25:20;;;;;;;1.58;0.90;;;;;;;;;;5016374;28;20096;-78
2023/10/26 05:27:46;;;;;;;2.45;0.80;;;;;;;;;;5029008;28;20030;-76
2023/10/26 05:30:11;;;;;;;2.33;0.63;;;;;;;;;;5027933;28;20037;-78
2023/10/26 05:32:36;;;;;;;2.13;0.88;;;;;;;;;;5033185;28;20029;-76
2023/10/26 05:35:02;;;;;;;1.75;0.70;;;;;;;;;;5034725;28;20540;-77
2023/10/26 05:37:27;;;;;;;2.13;1.00;;;;;;;;;;5029506;28;20088;-78
2023/10/26 05:39:52;;;;;;;1.08;0.70;;;;;;;;;;5027491;28;20056;-78
2023/10/26 05:42:17;;;;;;;2.50;1.10;;;;;;;;;;5026919;28;20438;-78
2023/10/26 05:44:43;;;;;;;2.95;0.77;;;;;;;;;;5031950;28;20030;-78
2023/10/26 05:47:08;;;;;;;3.10;0.90;;;;;;;;;;5033977;28;20401;-78
2023/10/26 05:49:33;;;;;;;1.90;0.80;;;;;;;;;;5030145;28;20037;-77
2023/10/26 05:52:00;;;;;;;2.38;0.93;;;;;;;;;;5029012;28;20485;-77
2023/10/26 05:54:26;;;;;;;3.90;1.00;;;;;;;;;;5024777;28;20036;-77
2023/10/26 05:56:51;;;;;;;3.70;1.15;;;;;;;;;;5026233;28;20026;-76
2023/10/26 05:59:16;;;;;;;3.90;1.80;;;;;;;;;;5028324;28;20052;-77
2023/10/26 06:01:41;;;;;;;4.00;1.10;;;;;;;;;;5026262;28;20057;-76
2023/10/26 06:04:06;;;;;;;4.30;1.00;;;;;;;;;;5029719;28;20053;-77
2023/10/26 06:06:32;;;;;;;3.13;1.35;;;;;;;;;;5026487;28;20042;-77
2023/10/26 06:08:59;;;;;;;2.78;1.38;;;;;;;;;;5012721;28;20045;-77
2023/10/26 06:11:25;;;;;;;2.85;1.00;;;;;;;;;;5007681;28;20041;-77
2023/10/26 06:13:51;;;;;;;2.25;0.75;;;;;;;;;;5031875;28;20046;-77
2023/10/26 06:16:17;;;;;;;1.80;0.77;;;;;;;;;;5031924;28;20558;-77
2023/10/26 06:18:42;;;;;;;4.32;1.17;;;;;;;;;;5029092;28;20109;-77
2023/10/26 06:21:08;;;;;;;3.22;1.17;;;;;;;;;;5015005;28;20034;-77
2023/10/26 06:23:33;;;;;;;3.35;0.98;;;;;;;;;;5012162;28;20417;-77
2023/10/26 06:26:00;;;;;;;3.33;0.90;;;;;;;;;;5028403;28;20092;-76
2023/10/26 06:28:25;;;;;;;3.80;1.20;;;;;;;;;;5007122;28;20034;-77
2023/10/26 06:30:51;;;;;;;2.22;1.00;;;;;;;;;;5028618;28;20045;-76
2023/10/26 06:33:16;;;;;;;3.80;1.58;;;;;;;;;;5029375;28;20034;-76
2023/10/26 06:35:41;;;;;;;4.68;1.40;;;;;;;;;;5023474;28;20041;-76
2023/10/26 06:38:07;;;;;;;3.70;1.33;;;;;;;;;;5023971;28;20021;-76
2023/10/26 06:40:32;;;;;;;2.42;1.40;;;;;;;;;;5023834;28;20026;-76
2023/10/26 06:42:57;;;;;;;4.50;1.13;;;;;;;;;;5027778;28;20379;-76
2023/10/26 06:45:22;;;;;;;2.47;1.00;;;;;;;;;;5013397;28;20413;-77
2023/10/26 06:47:47;;;;;;;3.55;0.93;;;;;;;;;;5025337;28;20037;-76
2023/10/26 06:50:12;;;;;;;2.25;0.90;;;;;;;;;;5025126;28;20065;-76
2023/10/26 06:52:38;;;;;;;2.35;1.30;;;;;;;;;;5020947;28;20064;-76
2023/10/26 06:55:03;;;;;;;2.50;0.88;;;;;;;;;;5029522;28;20129;-76
2023/10/26 06:57:32;;;;;;;2.63;1.02;;;;;;;;;;5026276;28;20033;-76
2023/10/26 06:59:58;;;;;;;2.80;0.65;;;;;;;;;;5027513;28;20034;-76
2023/10/26 07:02:23;;;;;;;1.80;0.80;;;;;;;;;;5024228;28;20047;-77
2023/10/26 07:04:49;;;;;;;1.80;0.80;;;;;;;;;;5023759;28;20025;-76
2023/10/26 07:07:14;;;;;;;2.53;0.73;;;;;;;;;;5002193;28;20037;-76
2023/10/26 07:09:40;;;;;;;1.83;0.90;;;;;;;;;;5011744;28;20509;-76
2023/10/26 07:12:05;;;;;;;2.05;0.77;;;;;;;;;;5028597;28;20029;-77
2023/10/26 07:14:31;;;;;;;2.92;0.75;;;;;;;;;;5027385;28;20172;-76
2023/10/26 07:16:56;;;;;;;3.03;0.73;;;;;;;;;;5025491;28;20032;-77
2023/10/26 07:19:22;;;;;;;3.40;1.30;;;;;;;;;;5025274;28;20034;-76
2023/10/26 07:21:47;;;;;;;2.85;0.70;;;;;;;;;;5025086;28;20039;-77
2023/10/26 07:24:12;;;;;;;2.33;0.90;;;;;;;;;;5029401;28;20060;-76
2023/10/26 07:26:37;;;;;;;1.42;0.57;;;;;;;;;;5024519;28;20080;-76
2023/10/26 07:29:02;;;;;;;2.85;0.70;;;;;;;;;;5023599;28;20029;-76
2023/10/26 07:31:28;;;;;;;5.80;0.70;;;;;;;;;;5023552;28;20029;-77
2023/10/26 07:33:53;;;;;;;2.58;0.80;;;;;;;;;;5026414;28;20577;-76
2023/10/26 07:36:18;;;;;;;2.58;0.77;;;;;;;;;;5006593;28;20541;-76
2023/10/26 07:38:44;;;;;;;2.15;0.70;;;;;;;;;;5023979;28;20457;-77
2023/10/26 07:41:09;;;;;;;1.45;0.68;;;;;;;;;;5027751;28;20036;-77
2023/10/26 07:43:35;;;;;;;1.10;0.50;;;;;;;;;;5025933;28;20034;-77
2023/10/26 07:46:00;;;;;;;2.08;0.63;;;;;;;;;;5027333;28;20033;-77
2023/10/26 07:48:26;;;;;;;2.60;0.70;;;;;;;;;;5024180;28;20045;-77
2023/10/26 07:50:51;;;;;;;2.85;1.13;;;;;;;;;;5028551;28;20513;-77
2023/10/26 07:53:17;;;;;;;1.27;0.57;;;;;;;;;;5028618;28;20025;-77
2023/10/26 07:55:43;;;;;;;0.75;0.30;;;;;;;;;;5024039;28;20021;-77
2023/10/26 07:58:09;;;;;;;1.88;0.50;;;;;;;;;;5021082;28;20025;-77
2023/10/26 08:00:36;;;;;;;2.42;0.63;;;;;;;;;;5020762;28;20506;-77
2023/10/26 08:03:01;;;;;;;1.35;0.50;;;;;;;;;;5022962;28;20021;-76
2023/10/26 08:05:26;;;;;;;1.52;0.70;;;;;;;;;;5028938;28;20390;-77
2023/10/26 08:07:52;;;;;;;1.85;0.90;;;;;;;;;;5026865;28;20026;-77
2023/10/26 08:10:17;;;;;;;2.88;1.00;;;;;;;;;;5023928;28;20053;-76
2023/10/26 08:12:43;;;;;;;4.55;0.80;;;;;;;;;;5021525;28;20077;-77
2023/10/26 08:15:08;;;;;;;2.13;1.00;;;;;;;;;;5023563;28;20072;-76
2023/10/26 08:17:37;;;;;;;2.92;0.90;;;;;;;;;;5022782;28;20036;-77
2023/10/26 08:20:06;;;;;;;2.05;0.77;;;;;;;;;;5023989;28;20059;-77
2023/10/26 08:22:32;;;;;;;3.28;0.75;;;;;;;;;;5024972;28;20084;-77
2023/10/26 08:24:57;;;;;;;1.40;0.73;;;;;;;;;;5008821;28;20034;-76
2023/10/26 08:27:23;;;;;;;3.40;1.10;;;;;;;;;;5023647;28;20112;-77
2023/10/26 08:29:49;;;;;;;3.97;0.80;;;;;;;;;;5021017;28;20041;-76
2023/10/26 08:32:15;;;;;;;3.28;1.08;;;;;;;;;;5022364;28;20497;-77
2023/10/26 08:34:40;;;;;;;3.78;0.95;;;;;;;;;;5028334;28;20057;-77
2023/10/26 08:37:05;;;;;;;2.28;1.00;;;;;;;;;;5027108;28;20482;-77
2023/10/26 08:39:30;;;;;;;1.70;0.80;;;;;;;;;;5022009;28;20022;-77
2023/10/26 08:41:59;;;;;;;1.95;0.70;;;;;;;;;;5022236;28;20021;-77
2023/10/26 08:44:26;;;;;;;2.53;0.68;;;;;;;;;;5011098;28;20090;-77
2023/10/26 08:46:53;;;;;;;2.03;0.98;;;;;;;;;;5030655;28;20022;-77
2023/10/26 08:49:19;;;;;;;2.35;1.00;;;;;;;;;;5016226;28;20099;-77
2023/10/26 08:51:44;;;;;;;3.03;1.00;;;;;;;;;;5027994;28;20032;-77
2023/10/26 08:54:09;;;;;;;3.17;1.30;;;;;;;;;;5027501;28;20026;-77
2023/10/26 08:56:34;;;;;;;2.15;1.02;;;;;;;;;;5024695;28;20025;-77
2023/10/26 08:59:02;;;;;;;1.85;0.85;;;;;;;;;;5029538;28;20474;-77
2023/10/26 09:01:28;;;;;;;2.15;1.13;;;;;;;;;;5028894;28;20026;-77
2023/10/26 09:03:53;;;;;;;4.05;1.30;;;;;;;;;;5030943;28;20033;-77
2023/10/26 09:06:18;;;;;;;2.08;0.80;;;;;;;;;;5029540;28;20061;-77
2023/10/26 09:08:43;;;;;;;1.63;0.80;;;;;;;;;;5026535;28;20033;-77
2023/10/26 09:11:20;;;;;;;2.25;1.10;;;;;;;;;;5026448;28;20092;-77
2023/10/26 09:13:45;;;;;;;2.45;1.20;;;;;;;;;;5026881;28;20038;-77
2023/10/26 09:16:10;;;;;;;4.65;1.00;;;;;;;;;;5031911;28;20032;-77
2023/10/26 09:18:36;;;;;;;2.90;1.00;;;;;;;;;;5030260;28;20025;-76
2023/10/26 09:21:05;;;;;;;3.85;1.15;;;;;;;;;;5027419;28;20026;-77
2023/10/26 09:23:31;;;;;;;2.10;1.00;;;;;;;;;;5010343;28;20075;-77
2023/10/26 09:25:57;;;;;;;2.15;0.90;;;;;;;;;;5027372;28;20106;-77
2023/10/26 09:28:23;;;;;;;2.35;1.27;;;;;;;;;;5029641;28;20029;-77
2023/10/26 09:30:48;;;;;;;2.08;1.30;;;;;;;;;;5012248;28;20509;-78
2023/10/26 09:33:25;;;;;;;3.42;1.73;;;;;;;;;;5029804;28;20509;-77
2023/10/26 09:35:50;;;;;;;2.83;1.30;;;;;;;;;;5024234;28;20026;-77
2023/10/26 09:38:21;;;;;;;4.40;1.73;;;;;;;;;;5025538;28;20037;-77
2023/10/26 09:40:47;;;;;;;5.38;1.10;;;;;;;;;;5009673;28;20096;-77
2023/10/26 09:43:12;;;;;;;4.35;1.63;;;;;;;;;;5026175;28;20045;-77
2023/10/26 09:45:37;;;;;;;5.32;1.92;;;;;;;;;;5029046;28;20033;-77
2023/10/26 09:48:04;;;;;;;3.50;1.88;;;;;;;;;;5028662;28;20029;-77
2023/10/26 09:50:37;;;;;;;4.53;1.90;;;;;;;;;;5025000;28;20108;-78
2023/10/26 09:53:03;;;;;;;2.47;1.40;;;;;;;;;;5007947;28;20029;-77
2023/10/26 09:55:28;;;;;;;4.20;2.38;;;;;;;;;;5018332;28;20084;-77
2023/10/26 09:58:03;;;;;;;3.67;1.60;;;;;;;;;;5013811;28;20042;-76
2023/10/26 10:00:34;;;;;;;5.15;1.83;;;;;;;;;;5025496;28;20025;-76
2023/10/26 10:03:10;;;;;;;3.88;2.08;;;;;;;;;;5025799;28;20044;-76
2023/10/26 10:05:39;;;;;;;3.45;2.10;;;;;;;;;;5023394;28;20072;-77
2023/10/26 10:08:04;;;;;;;3.45;2.33;;;;;;;;;;5006648;28;20021;-76
2023/10/26 10:10:30;;;;;;;3.28;1.63;;;;;;;;;;5025486;28;20040;-77
2023/10/26 10:12:55;;;;;;;4.15;2.17;;;;;;;;;;5026017;28;20057;-77
2023/10/26 10:15:39;;;;;;;3.22;2.03;;;;;;;;;;5024346;28;20490;-77
2023/10/26 10:18:07;;;;;;;4.03;1.90;;;;;;;;;;5025851;28;20493;-76
2023/10/26 10:20:36;;;;;;;4.97;2.13;;;;;;;;;;5025590;28;20029;-77
2023/10/26 10:23:03;;;;;;;2.80;1.48;;;;;;;;;;5010268;28;20033;-76
2023/10/26 10:25:46;;;;;;;3.47;1.90;;;;;;;;;;5023938;28;20033;-77
2023/10/26 10:28:12;;;;;;;4.15;1.98;;;;;;;;;;5022149;28;20037;-76
2023/10/26 10:30:47;;;;;;;2.92;1.58;;;;;;;;;;5020630;28;20099;-76
2023/10/26 10:33:19;;;;;;;3.47;1.85;;;;;;;;;;5024964;28;20022;-77
2023/10/26 10:35:49;;;;;;;3.97;2.22;;;;;;;;;;5021605;28;20433;-77
2023/10/26 10:38:21;;;;;;;4.05;2.53;;;;;;;;;;5031096;28;20479;-76
2023/10/26 10:40:53;;;;;;;4.03;1.90;;;;;;;;;;5010337;28;20076;-76
2023/10/26 10:43:28;;;;;;;3.57;1.67;;;;;;;;;;5027578;28;20365;-76
2023/10/26 10:45:53;;;;;;;3.20;1.70;;;;;;;;;;5024966;28;20610;-76
2023/10/26 10:48:19;;;;;;;3.22;1.60;;;;;;;;;;5012773;28;20033;-76
2023/10/26 10:50:44;;;;;;;3.70;1.95;;;;;;;;;;5022868;28;20041;-76
2023/10/26 10:53:15;;;;;;;3.42;1.80;;;;;;;;;;5028115;28;20037;-76
2023/10/26 10:55:42;;;;;;;4.38;2.38;;;;;;;;;;5023343;28;20022;-76
2023/10/26 10:58:08;;;;;;;3.63;1.95;;;;;;;;;;5025713;28;20032;-76
2023/10/26 11:00:36;;;;;;;3.25;1.85;;;;;;;;;;5025950;28;20262;-78
2023/10/26 11:03:01;;;;;;;4.88;1.80;;;;;;;;;;5030627;28;20030;-76
2023/10/26 11:05:37;;;;;;;5.35;1.52;;;;;;;;;;5026848;28;20029;-76
2023/10/26 11:08:04;;;;;;;2.65;1.40;;;;;;;;;;5012856;28;20029;-76
2023/10/26 11:10:29;;;;;;;3.10;1.42;;;;;;;;;;5012117;28;20563;-76
2023/10/26 11:12:54;;;;;;;4.45;1.90;;;;;;;;;;5027467;28;20026;-76
2023/10/26 11:15:19;;;;;;;4.93;1.67;;;;;;;;;;5023858;28;20025;-76
2023/10/26 11:17:45;;;;;;;1.92;0.90;;;;;;;;;;5023215;28;20029;-76
2023/10/26 11:20:29;;;;;;;1.58;0.98;;;;;;;;;;5011150;28;20068;-76
2023/10/26 11:22:57;;;;;;;3.83;1.52;;;;;;;;;;5020921;28;20405;-77
2023/10/26 11:25:26;;;;;;;2.92;1.50;;;;;;;;;;5022070;28;20048;-77
2023/10/26 11:27:52;;;;;;;3.05;1.58;;;;;;;;;;5024745;28;20418;-76
2023/10/26 11:30:17;;;;;;;3.50;1.30;;;;;;;;;;5023069;28;20035;-76
2023/10/26 11:32:43;;;;;;;2.60;1.40;;;;;;;;;;5012226;28;20039;-76
2023/10/26 11:35:09;;;;;;;3.65;1.58;;;;;;;;;;5027010;28;20017;-77
2023/10/26 11:37:35;;;;;;;3.58;1.17;;;;;;;;;;5021314;28;20036;-77
2023/10/26 11:40:01;;;;;;;2.35;1.20;;;;;;;;;;5021907;28;20400;-77
2023/10/26 11:42:45;;;;;;;2.72;1.48;;;;;;;;;;5023366;28;20048;-76
2023/10/26 11:45:15;;;;;;;6.38;2.50;;;;;;;;;;5026800;28;20033;-76
2023/10/26 11:47:50;;;;;;;3.45;1.40;;;;;;;;;;5012213;28;20371;-76
2023/10/26 11:50:23;;;;;;;2.28;1.20;;;;;;;;;;5012972;28;20026;-77
2023/10/26 11:52:49;;;;;;;3.33;1.60;;;;;;;;;;5024924;28;20080;-77
2023/10/26 11:55:15;;;;;;;5.18;1.42;;;;;;;;;;5021810;28;20405;-76
2023/10/26 11:57:40;;;;;;;2.88;1.05;;;;;;;;;;5023504;28;20034;-77
2023/10/26 12:00:06;;;;;;;2.85;1.17;;;;;;;;;;5030291;28;20167;-77
2023/10/26 12:02:38;;;;;;;5.50;1.20;;;;;;;;;;5028381;28;20397;-77
2023/10/26 12:05:03;;;;;;;2.95;1.38;;;;;;;;;;5012888;28;20030;-77
2023/10/26 12:07:29;;;;;;;4.80;1.50;;;;;;;;;;5027306;28;20401;-77
2023/10/26 12:09:54;;;;;;;2.88;1.23;;;;;;;;;;5024185;28;20135;-77
2023/10/26 12:12:20;;;;;;;4.50;1.00;;;;;;;;;;5022308;28;20405;-77
2023/10/26 12:14:47;;;;;;;1.73;0.90;;;;;;;;;;5027389;28;20132;-76
2023/10/26 12:17:12;;;;;;;3.33;1.00;;;;;;;;;;5050538;22;20437;-86
2023/10/26 12:19:37;;;;;;;1.85;0.80;;;;;;;;;;5043907;28;20025;-86
2023/10/26 12:22:02;;;;;;;2.03;0.90;;;;;;;;;;5045140;28;20071;-86
2023/10/26 12:24:29;;;;;;;2.15;0.90;;;;;;;;;;5046838;28;20086;-86
2023/10/26 12:26:57;;;;;;;2.00;1.10;;;;;;;;;;5041676;28;20452;-86
2023/10/26 12:29:22;;;;;;;1.80;0.88;;;;;;;;;;5026923;28;20114;-86
2023/10/26 12:31:47;;;;;;;2.38;1.00;;;;;;;;;;5029236;28;20052;-85
2023/10/26 12:34:12;;;;;;;2.17;0.90;;;;;;;;;;5046733;28;20595;-86
2023/10/26 12:36:38;;;;;;;2.40;1.05;;;;;;;;;;5026512;28;20444;-86
2023/10/26 12:39:03;;;;;;;3.35;0.90;;;;;;;;;;5047127;28;20060;-85
2023/10/26 12:41:28;;;;;;;3.53;1.02;;;;;;;;;;5019614;28;20024;-85
2023/10/26 12:43:54;;;;;;;2.13;1.02;;;;;;;;;;5039961;28;20060;-85
2023/10/26 12:46:19;;;;;;;2.35;0.95;;;;;;;;;;5046706;28;20052;-85
2023/10/26 12:48:44;;;;;;;3.03;1.15;;;;;;;;;;5023757;28;20033;-85
2023/10/26 12:51:09;;;;;;;1.75;1.05;;;;;;;;;;5011667;28;20029;-85
2023/10/26 12:53:35;;;;;;;1.98;0.98;;;;;;;;;;5027306;28;20447;-86
2023/10/26 12:56:01;;;;;;;2.75;1.00;;;;;;;;;;5040473;28;20033;-86
2023/10/26 12:58:26;;;;;;;1.52;0.88;;;;;;;;;;5047665;28;20056;-86
2023/10/26 13:00:52;;;;;;;1.92;0.80;;;;;;;;;;5041207;28;20103;-85
2023/10/26 13:03:17;;;;;;;2.03;0.75;;;;;;;;;;5029608;28;20025;-85
2023/10/26 13:05:42;;;;;;;1.67;0.68;;;;;;;;;;5026387;28;20068;-87
2023/10/26 13:08:08;;;;;;;2.83;0.60;;;;;;;;;;5046967;28;20036;-85
2023/10/26 13:10:33;;;;;;;2.28;0.73;;;;;;;;;;5040361;28;20028;-86
2023/10/26 13:12:58;;;;;;;3.70;1.17;;;;;;;;;;5041972;28;20110;-86
2023/10/26 13:15:24;;;;;;;1.95;0.95;;;;;;;;;;5045570;28;20029;-86
2023/10/26 13:17:49;;;;;;;1.58;0.70;;;;;;;;;;5041199;28;20030;-86
2023/10/26 13:20:14;;;;;;;3.10;1.35;;;;;;;;;;5044542;28;20021;-86
2023/10/26 13:22:39;;;;;;;2.20;1.00;;;;;;;;;;5038335;28;20387;-86
2023/10/26 13:25:05;;;;;;;2.40;0.80;;;;;;;;;;5023898;28;20038;-84
2023/10/26 13:27:30;;;;;;;2.60;1.00;;;;;;;;;;5037264;28;20029;-84
2023/10/26 13:29:55;;;;;;;2.53;0.60;;;;;;;;;;5034771;28;20106;-84
2023/10/26 13:32:20;;;;;;;2.97;1.70;;;;;;;;;;5048080;28;20029;-81
2023/10/26 13:34:46;;;;;;;5.25;2.00;;;;;;;;;;5042321;28;20052;-80
2023/10/26 13:37:11;;;;;;;3.30;1.60;;;;;;;;;;5041568;28;20037;-81
2023/10/26 13:39:38;;;;;;;2.70;1.30;;;;;;;;;;5013706;28;20032;-81
2023/10/26 13:42:03;;;;;;;2.60;1.20;;;;;;;;;;5043431;28;20455;-80
2023/10/26 13:44:29;;;;;;;2.83;1.20;;;;;;;;;;5045303;28;20021;-82
2023/10/26 13:46:54;;;;;;;2.67;1.40;;;;;;;;;;5043920;28;20119;-82
2023/10/26 13:49:19;;;;;;;1.83;0.70;;;;;;;;;;5045222;28;20028;-79
2023/10/26 13:51:44;;;;;;;2.67;0.70;;;;;;;;;;5039437;28;20029;-80
2023/10/26 13:54:09;;;;;;;1.77;0.68;;;;;;;;;;5039545;28;20030;-80
2023/10/26 13:56:35;;;;;;;2.55;0.80;;;;;;;;;;5042123;28;20025;-81
2023/10/26 13:59:00;;;;;;;1.42;0.70;;;;;;;;;;5038490;28;20035;-81
2023/10/26 14:01:26;;;;;;;1.05;0.55;;;;;;;;;;5041209;28;20033;-81
2023/10/26 14:03:51;;;;;;;1.88;0.85;;;;;;;;;;5040821;28;20024;-80
2023/10/26 14:06:16;;;;;;;2.42;0.70;;;;;;;;;;5033662;28;20044;-81
2023/10/26 14:08:41;;;;;;;0.93;0.50;;;;;;;;;;5035497;28;20071;-81
2023/10/26 14:11:07;;;;;;;1.73;0.80;;;;;;;;;;5020315;28;20067;-81
2023/10/26 14:13:32;;;;;;;2.58;0.70;;;;;;;;;;5041726;28;20337;-81
2023/10/26 14:15:57;;;;;;;2.92;0.75;;;;;;;;;;5039829;28;20470;-81
2023/10/26 14:18:22;;;;;;;2.17;0.75;;;;;;;;;;5026905;28;20021;-81
2023/10/26 14:20:47;;;;;;;1.85;0.75;;;;;;;;;;5038973;28;20013;-81
2023/10/26 14:23:13;;;;;;;3.38;0.70;;;;;;;;;;5021716;28;21853;-81
2023/10/26 14:25:38;;;;;;;1.42;0.60;;;;;;;;;;5036430;28;20573;-81
2023/10/26 14:28:03;;;;;;;1.80;0.70;;;;;;;;;;5043273;28;20021;-81
2023/10/26 14:30:28;;;;;;;1.50;0.60;;;;;;;;;;5036949;28;20588;-81
2023/10/26 14:32:54;;;;;;;1.10;0.50;;;;;;;;;;5013177;28;20114;-80
2023/10/26 14:35:21;;;;;;;1.70;0.82;;;;;;;;;;5033990;28;20085;-81